Airfield :
LOGIN :

Register | Disclaimer

   EN    FR    IT 

 










Legend :    VFR   Marginal VFR   IFR   Intensive IFR   Very Intensive IFR
Visi :
Ceiling :
>= 8 km
>= 3000ft
5 to 8 km
1000 to 3000 ft
1500m to 5 km
500 to 1000 ft
800 to 1500m
200 to 500 ft
< 800m
< 200 ft
Symbols :   Thunderstorms  Fog  Heavy snow  Heavy precipitations  Wind > 20 kt
SIGMETs :     Misc.  Thunderstorms  Icing  Turbulence  Mountain Waves  Volcanic Ashes







- Airport Elevation : 53 ft
- IATA code : LBC


EDHL - Lübeck

CURRENT METAR :
  • 251720Z 24006KT 210V270 9999 BKN015 15/13 Q1021

EXPIRED METARs :
  • 251650Z 25007KT 190V300 9999 BKN015 16/13 Q1021
  • 251620Z 25008KT 220V300 9999 BKN021 17/13 Q1021
  • 251550Z 25008KT 220V290 9999 BKN023 17/12 Q1021
  • 251520Z 25008KT 210V350 9999 SCT032 19/12 Q1021
  • 251450Z 24008KT 200V280 9999 SCT032 20/12 Q1021

TAF TAF EDHL
Valid from the 25 at 18:00 until the 25 at 21:00 UTC


251700Z 2518/2521 29006KT 9999 BKN015
BECMG 2518/2520 BKN012
TEMPO 2519/2521 4500 -DZ BKN007
No reported NOTAMs for that airfield.



MET'MAP, your aeronautical weather chart ! - Copyright ORBIFLY December 2007 - Disclaimer

ORBIFLY MET'MAP TEAM :

Programming & Development : Alexandra Zaïnal
Concept & Development : Baudouin d'Aumeries
Co-Development & Prog : Marc-Olivier Méhu
Technical & hardware support : Manuel Goepfert

Contact : metmap@orbifly.com




SOURCES & CREDITS :

   NOAA